Terminal Aerodrome Forecast
Issued by NWS St Louis, MO

Home | Current Version | Previous Version | Text Only | Print | Product List | Glossary On
Versions: 1 2 3 4 5 6 7 8 9 10 11 12 13 14 15 16 17 18 19 20 21 22 23 24 25 26 27 28 29 30 31 32 33 34 35 36 37 38
213
FTUS43 KLSX 300859 AAC
TAFSTL
TAF AMD
KSTL 300859Z 3009/0112 10012KT 4SM -SHRA BR SCT008 BKN030 OVC050
      TEMPO 3009/3012 BKN008
     FM301500 14015G25KT P6SM OVC010
     FM301800 20012KT P6SM BKN035
     FM010000 22007KT P6SM VCTS SCT040CB BKN120
     FM010300 27005KT P6SM SCT040 BKN120=

USA.gov is the U.S. government's official web portal to all federal, state and local government web resources and services.